createdAt,value
2019-04-07T00:00:12.711Z,94049
2019-04-07T00:01:22.394Z,94049
2019-04-07T00:02:33.066Z,94045
2019-04-07T00:03:42.510Z,94045
2019-04-07T00:04:52.267Z,94046
2019-04-07T00:06:02.317Z,94042
2019-04-07T00:07:12.053Z,94041
2019-04-07T00:08:21.674Z,94040
2019-04-07T00:09:30.849Z,94042
2019-04-07T00:10:40.371Z,94038
2019-04-07T00:11:49.883Z,94039
2019-04-07T00:12:59.544Z,94036
2019-04-07T00:14:08.951Z,94034
2019-04-07T00:15:18.458Z,94034
2019-04-07T00:16:28.947Z,94034
2019-04-07T00:17:38.728Z,94030
2019-04-07T00:18:48.176Z,94029
2019-04-07T00:19:57.489Z,94036
2019-04-07T00:21:14.576Z,94033
2019-04-07T00:22:23.561Z,94032
2019-04-07T00:23:33.553Z,94033
2019-04-07T00:24:42.723Z,94033
2019-04-07T00:25:52.267Z,94035
2019-04-07T00:27:02.547Z,94034
2019-04-07T00:28:11.858Z,94032
2019-04-07T00:29:21.533Z,94034
2019-04-07T00:30:30.566Z,94038
2019-04-07T00:31:40.118Z,94037
2019-04-07T00:32:50.096Z,94036
2019-04-07T00:33:59.329Z,94045
2019-04-07T00:35:08.837Z,94041
2019-04-07T00:36:19.271Z,94042
2019-04-07T00:37:29.471Z,94047
2019-04-07T00:38:38.502Z,94044
2019-04-07T00:39:47.938Z,94045
2019-04-07T00:40:57.466Z,94048
2019-04-07T00:42:07.205Z,94049
2019-04-07T00:43:16.623Z,94048
2019-04-07T00:44:26.232Z,94044
2019-04-07T00:45:35.696Z,94046
2019-04-07T00:46:45.224Z,94042
2019-04-07T00:47:54.780Z,94041
2019-04-07T00:49:05.045Z,94040
2019-04-07T00:50:14.151Z,94042
2019-04-07T00:51:23.448Z,94039
2019-04-07T00:52:32.967Z,94039
2019-04-07T00:53:42.503Z,94037
2019-04-07T00:54:52.261Z,94037
2019-04-07T00:56:01.576Z,94032
2019-04-07T00:57:11.106Z,94029
2019-04-07T00:58:20.651Z,94029
2019-04-07T00:59:30.807Z,94035
2019-04-07T01:00:39.973Z,94031
2019-04-07T01:01:49.283Z,94035
2019-04-07T01:02:59.408Z,94036
2019-04-07T01:04:08.928Z,94030
2019-04-07T01:05:18.034Z,94030
2019-04-07T01:06:28.480Z,94031
2019-04-07T01:07:37.994Z,94026
2019-04-07T01:08:47.834Z,94028
2019-04-07T01:09:57.109Z,94024
2019-04-07T01:11:06.630Z,94029
2019-04-07T01:12:16.175Z,94028
2019-04-07T01:13:26.256Z,94032
2019-04-07T01:14:35.226Z,94032
2019-04-07T01:15:44.808Z,94034
2019-04-07T01:16:54.311Z,94034
2019-04-07T01:18:04.234Z,94041
2019-04-07T01:19:13.394Z,94037
2019-04-07T01:20:22.929Z,94035
2019-04-07T01:21:33.077Z,94034
2019-04-07T01:22:42.033Z,94034
2019-04-07T01:23:51.718Z,94031
2019-04-07T01:25:01.140Z,94034
2019-04-07T01:26:11.209Z,94038
2019-04-07T01:27:20.391Z,94036
2019-04-07T01:28:30.206Z,94042
2019-04-07T01:29:39.931Z,94044
2019-04-07T01:30:49.808Z,94039
2019-04-07T01:31:59.450Z,94042
2019-04-07T01:33:08.834Z,94046
2019-04-07T01:34:18.508Z,94044
2019-04-07T01:35:27.970Z,94051
2019-04-07T01:36:39.092Z,94044
2019-04-07T01:37:48.090Z,94044
2019-04-07T01:38:57.652Z,94046
2019-04-07T01:40:07.215Z,94047
2019-04-07T01:41:17.493Z,94046
2019-04-07T01:42:26.371Z,94048
2019-04-07T01:43:35.947Z,94045
2019-04-07T01:44:46.053Z,94045
2019-04-07T01:45:55.094Z,94048
2019-04-07T01:47:04.725Z,94043
2019-04-07T01:48:14.097Z,94045
2019-04-07T01:49:23.817Z,94044
2019-04-07T01:50:33.851Z,94044
2019-04-07T01:51:42.703Z,94042
2019-04-07T01:52:52.245Z,94044
2019-04-07T01:54:02.079Z,94038
2019-04-07T01:55:11.406Z,94040
2019-04-07T01:56:20.926Z,94040
2019-04-07T01:57:31.013Z,94043
2019-04-07T01:58:40.704Z,94037
2019-04-07T01:59:49.619Z,94039
2019-04-07T02:01:00.303Z,94037
2019-04-07T02:02:09.294Z,94041
2019-04-07T02:03:18.713Z,94037
2019-04-07T02:04:28.068Z,94040
2019-04-07T02:05:37.406Z,94037
2019-04-07T02:06:47.498Z,94038
2019-04-07T02:07:56.560Z,94039
2019-04-07T02:09:06.088Z,94040
2019-04-07T02:10:16.231Z,94036
2019-04-07T02:11:25.037Z,94032
2019-04-07T02:12:35.140Z,94032
2019-04-07T02:13:44.100Z,94036
2019-04-07T02:14:54.116Z,94037
2019-04-07T02:16:03.769Z,94034
2019-04-07T02:17:13.926Z,94037
2019-04-07T02:18:23.465Z,94039
2019-04-07T02:19:32.867Z,94039
2019-04-07T02:20:42.445Z,94038
2019-04-07T02:21:52.328Z,94041
2019-04-07T02:23:01.992Z,94039
2019-04-07T02:24:11.439Z,94038
2019-04-07T02:25:20.714Z,94041
2019-04-07T02:26:30.175Z,94040
2019-04-07T02:27:39.673Z,94045
2019-04-07T02:28:49.554Z,94041
2019-04-07T02:29:58.904Z,94044
2019-04-07T02:31:09.687Z,94040
2019-04-07T02:32:18.836Z,94038
2019-04-07T02:33:28.829Z,94040
2019-04-07T02:34:38.088Z,94039
2019-04-07T02:35:47.914Z,94037
2019-04-07T02:36:56.942Z,94040
2019-04-07T02:38:06.462Z,94037
2019-04-07T02:39:17.351Z,94037
2019-04-07T02:40:26.868Z,94038
2019-04-07T02:41:36.170Z,94034
2019-04-07T02:42:46.104Z,94035
2019-04-07T02:43:55.564Z,94036
2019-04-07T02:45:05.683Z,94040
2019-04-07T02:46:14.817Z,94041
2019-04-07T02:47:24.412Z,94042
2019-04-07T02:48:35.123Z,94040
2019-04-07T02:49:43.927Z,94042
2019-04-07T02:50:53.496Z,94042
2019-04-07T02:52:03.856Z,94045
2019-04-07T02:53:13.357Z,94046
2019-04-07T02:54:22.752Z,94047
2019-04-07T02:55:31.749Z,94045
2019-04-07T02:56:42.237Z,94043
2019-04-07T02:57:51.850Z,94045
2019-04-07T02:59:01.733Z,94044
2019-04-07T03:00:11.956Z,94049
2019-04-07T03:01:22.077Z,94046
2019-04-07T03:02:31.723Z,94049
2019-04-07T03:03:40.813Z,94052
2019-04-07T03:04:51.073Z,94053
2019-04-07T03:05:59.861Z,94057
2019-04-07T03:07:10.028Z,94057
2019-04-07T03:08:18.973Z,94055
2019-04-07T03:09:28.508Z,94057
2019-04-07T03:10:38.542Z,94056
2019-04-07T03:11:49.033Z,94055
2019-04-07T03:12:58.778Z,94057
2019-04-07T03:14:09.059Z,94056
2019-04-07T03:15:19.241Z,94053
2019-04-07T03:16:27.981Z,94055
2019-04-07T03:17:37.659Z,94055
2019-04-07T03:18:46.951Z,94053
2019-04-07T03:19:56.507Z,94052
2019-04-07T03:21:06.058Z,94052
2019-04-07T03:22:16.262Z,94056
2019-04-07T03:23:25.115Z,94057
2019-04-07T03:24:34.821Z,94059
2019-04-07T03:25:44.189Z,94060
2019-04-07T03:26:53.703Z,94060
2019-04-07T03:28:03.238Z,94053
2019-04-07T03:29:12.785Z,94055
2019-04-07T03:30:24.881Z,94056
2019-04-07T03:31:33.110Z,94057
2019-04-07T03:32:45.958Z,94056
2019-04-07T03:33:54.385Z,94057
2019-04-07T03:35:06.060Z,94055
2019-04-07T03:36:18.487Z,94054
2019-04-07T03:37:34.099Z,94059
2019-04-07T03:38:36.624Z,94059
2019-04-07T03:39:46.025Z,94063
2019-04-07T03:40:55.139Z,94062
2019-04-07T03:42:04.619Z,94063
2019-04-07T03:43:14.144Z,94063
2019-04-07T03:44:24.454Z,94065
2019-04-07T03:45:33.847Z,94074
2019-04-07T03:46:42.948Z,94073
2019-04-07T03:47:52.434Z,94074
2019-04-07T03:49:02.055Z,94071
2019-04-07T03:50:12.362Z,94071
2019-04-07T03:51:22.402Z,94073
2019-04-07T03:52:32.110Z,94072
2019-04-07T03:53:41.064Z,94078
2019-04-07T03:54:50.838Z,94070
2019-04-07T03:56:00.096Z,94071
2019-04-07T03:57:09.619Z,94067
2019-04-07T03:58:19.500Z,94064
2019-04-07T03:59:29.005Z,94071
2019-04-07T04:00:39.254Z,94070
2019-04-07T04:01:47.955Z,94076
2019-04-07T04:02:57.397Z,94074
2019-04-07T04:04:07.396Z,94076
2019-04-07T04:05:16.479Z,94077
2019-04-07T04:06:26.072Z,94076
2019-04-07T04:07:37.060Z,94076
2019-04-07T04:08:45.719Z,94080
2019-04-07T04:09:54.633Z,94079
2019-04-07T04:11:04.264Z,94080
2019-04-07T04:12:13.741Z,94075
2019-04-07T04:13:23.265Z,94077
2019-04-07T04:14:34.698Z,94078
2019-04-07T04:15:43.538Z,94079
2019-04-07T04:16:52.889Z,94075
2019-04-07T04:18:03.404Z,94079
2019-04-07T04:19:11.942Z,94080
2019-04-07T04:20:21.599Z,94078
2019-04-07T04:21:31.021Z,94079
2019-04-07T04:22:41.539Z,94079
2019-04-07T04:23:51.630Z,94081
2019-04-07T04:25:00.993Z,94080
2019-04-07T04:26:10.179Z,94084
2019-04-07T04:27:21.554Z,94082
2019-04-07T04:28:31.236Z,94084
2019-04-07T04:29:41.521Z,94083
2019-04-07T04:30:51.316Z,94088
2019-04-07T04:32:01.485Z,94088
2019-04-07T04:33:10.397Z,94086
2019-04-07T04:34:20.503Z,94087
2019-04-07T04:35:30.498Z,94090
2019-04-07T04:36:40.428Z,94089
2019-04-07T04:37:52.209Z,94089
2019-04-07T04:39:00.536Z,94091
2019-04-07T04:40:09.565Z,94092
2019-04-07T04:41:19.108Z,94096
2019-04-07T04:42:28.943Z,94096
2019-04-07T04:43:39.357Z,94094
2019-04-07T04:44:49.677Z,94102
2019-04-07T04:45:59.970Z,94097
2019-04-07T04:47:10.178Z,94098
2019-04-07T04:48:19.710Z,94091
2019-04-07T04:49:28.891Z,94094
2019-04-07T04:50:38.448Z,94101
2019-04-07T04:51:48.540Z,94102
2019-04-07T04:52:57.393Z,94107
2019-04-07T04:54:07.170Z,94107
2019-04-07T04:55:16.714Z,94112
2019-04-07T04:56:26.145Z,94109
2019-04-07T04:57:35.597Z,94115
2019-04-07T04:58:45.692Z,94111
2019-04-07T04:59:54.631Z,94119
2019-04-07T05:01:06.247Z,94116
2019-04-07T05:02:14.780Z,94118
2019-04-07T05:03:24.931Z,94120
2019-04-07T05:04:34.077Z,94120
2019-04-07T05:05:43.376Z,94122
2019-04-07T05:06:53.638Z,94123
2019-04-07T05:08:04.313Z,94129
2019-04-07T05:09:12.298Z,94126
2019-04-07T05:10:21.578Z,94129
2019-04-07T05:11:31.571Z,94123
2019-04-07T05:12:41.192Z,94126
2019-04-07T05:13:50.179Z,94131
2019-04-07T05:15:00.217Z,94131
2019-04-07T05:16:09.183Z,94135
2019-04-07T05:17:18.767Z,94134
2019-04-07T05:18:28.962Z,94134
2019-04-07T05:19:37.837Z,94136
2019-04-07T05:20:47.678Z,94137
2019-04-07T05:21:57.086Z,94141
2019-04-07T05:23:06.438Z,94138
2019-04-07T05:24:16.021Z,94135
2019-04-07T05:25:25.598Z,94133
2019-04-07T05:26:35.144Z,94133
2019-04-07T05:27:45.862Z,94130
2019-04-07T05:28:55.217Z,94130
2019-04-07T05:30:05.021Z,94129
2019-04-07T05:31:14.511Z,94131
2019-04-07T05:32:25.175Z,94124
2019-04-07T05:33:34.553Z,94124
2019-04-07T05:34:44.011Z,94126
2019-04-07T05:35:53.596Z,94126
2019-04-07T05:37:03.382Z,94118
2019-04-07T05:38:12.698Z,94127
2019-04-07T05:39:22.930Z,94128
2019-04-07T05:40:31.961Z,94131
2019-04-07T05:41:41.621Z,94131
2019-04-07T05:42:51.030Z,94131
2019-04-07T05:44:00.464Z,94133
2019-04-07T05:45:10.173Z,94134
2019-04-07T05:46:20.067Z,94132
2019-04-07T05:47:31.374Z,94123
2019-04-07T05:48:40.356Z,94127
2019-04-07T05:49:54.261Z,94119
2019-04-07T05:51:01.162Z,94122
2019-04-07T05:52:10.321Z,94118
2019-04-07T05:53:19.844Z,94120
2019-04-07T05:54:29.554Z,94117
2019-04-07T05:55:39.331Z,94118
2019-04-07T05:56:49.186Z,94118
2019-04-07T05:57:59.580Z,94117
2019-04-07T05:59:11.991Z,94121
2019-04-07T06:00:19.659Z,94126
2019-04-07T06:01:28.679Z,94128
2019-04-07T06:02:38.215Z,94130
2019-04-07T06:03:48.722Z,94132
2019-04-07T06:04:59.513Z,94136
2019-04-07T06:06:08.268Z,94139
2019-04-07T06:07:17.349Z,94138
2019-04-07T06:08:34.395Z,94143
2019-04-07T06:09:38.407Z,94141
2019-04-07T06:10:47.946Z,94143
2019-04-07T06:11:58.719Z,94146
2019-04-07T06:13:10.987Z,94141
2019-04-07T06:14:19.218Z,94143
2019-04-07T06:15:28.083Z,94141
2019-04-07T06:16:37.794Z,94148
2019-04-07T06:17:47.341Z,94148
2019-04-07T06:18:57.779Z,94148
2019-04-07T06:20:11.723Z,94148
2019-04-07T06:21:18.742Z,94143
2019-04-07T06:22:29.342Z,94144
2019-04-07T06:23:45.959Z,94149
2019-04-07T06:24:56.662Z,94141
2019-04-07T06:26:11.114Z,94141
2019-04-07T06:27:17.825Z,94136
2019-04-07T06:28:26.735Z,94136
2019-04-07T06:29:35.630Z,94136
2019-04-07T06:30:45.144Z,94137
2019-04-07T06:31:54.921Z,94140
2019-04-07T06:33:06.886Z,94141
2019-04-07T06:34:14.600Z,94141
2019-04-07T06:35:24.104Z,94144
2019-04-07T06:36:34.029Z,94148
2019-04-07T06:37:43.118Z,94140
2019-04-07T06:38:53.646Z,94147
2019-04-07T06:40:02.139Z,94143
2019-04-07T06:41:11.659Z,94146
2019-04-07T06:42:21.990Z,94151
2019-04-07T06:43:35.097Z,94152
2019-04-07T06:44:42.135Z,94156
2019-04-07T06:45:54.202Z,94156
2019-04-07T06:47:03.835Z,94163
2019-04-07T06:48:11.626Z,94158
2019-04-07T06:49:21.851Z,94158
2019-04-07T06:50:32.132Z,94167
2019-04-07T06:51:42.385Z,94165
2019-04-07T06:52:51.957Z,94164
2019-04-07T06:54:01.207Z,94171
2019-04-07T06:55:10.597Z,94168
2019-04-07T06:56:20.693Z,94174
2019-04-07T06:57:29.893Z,94176
2019-04-07T06:58:41.690Z,94171
2019-04-07T06:59:50.141Z,94174
2019-04-07T07:01:02.010Z,94171
2019-04-07T07:02:08.681Z,94174
2019-04-07T07:03:18.209Z,94175
2019-04-07T07:04:27.689Z,94181
2019-04-07T07:05:37.115Z,94180
2019-04-07T07:06:48.373Z,94184
2019-04-07T07:07:57.311Z,94187
2019-04-07T07:09:07.276Z,94184
2019-04-07T07:10:26.595Z,94187
2019-04-07T07:11:29.965Z,94187
2019-04-07T07:12:39.793Z,94190
2019-04-07T07:13:47.730Z,94188
2019-04-07T07:14:58.248Z,94190
2019-04-07T07:16:10.185Z,94189
2019-04-07T07:17:18.738Z,94187
2019-04-07T07:18:28.285Z,94186
2019-04-07T07:19:37.011Z,94184
2019-04-07T07:20:47.284Z,94184
2019-04-07T07:21:56.021Z,94184
2019-04-07T07:23:05.875Z,94183
2019-04-07T07:24:20.720Z,94184
2019-04-07T07:25:29.644Z,94189
2019-04-07T07:26:36.617Z,94187
2019-04-07T07:27:46.129Z,94192
2019-04-07T07:28:55.855Z,94192
2019-04-07T07:30:04.523Z,94189
2019-04-07T07:31:14.300Z,94192
2019-04-07T07:32:24.542Z,94190
2019-04-07T07:33:38.316Z,94193
2019-04-07T07:34:45.500Z,94194
2019-04-07T07:35:56.001Z,94186
2019-04-07T07:37:05.564Z,94192
2019-04-07T07:38:15.023Z,94194
2019-04-07T07:39:25.090Z,94191
2019-04-07T07:40:35.063Z,94197
2019-04-07T07:41:43.528Z,94196
2019-04-07T07:42:56.614Z,94198
2019-04-07T07:44:04.309Z,94199
2019-04-07T07:45:13.968Z,94200
2019-04-07T07:46:23.716Z,94199
2019-04-07T07:47:32.687Z,94201
2019-04-07T07:48:42.058Z,94202
2019-04-07T07:49:50.967Z,94200
2019-04-07T07:51:01.163Z,94206
2019-04-07T07:52:11.600Z,94204
2019-04-07T07:53:22.759Z,94205
2019-04-07T07:54:31.940Z,94211
2019-04-07T07:55:41.406Z,94207
2019-04-07T07:56:51.596Z,94209
2019-04-07T07:58:01.028Z,94206
2019-04-07T07:59:09.918Z,94211
2019-04-07T08:00:19.820Z,94209
2019-04-07T08:01:28.940Z,94211
2019-04-07T08:02:38.949Z,94215
2019-04-07T08:03:51.650Z,94218
2019-04-07T08:04:59.244Z,94220
2019-04-07T08:06:08.366Z,94224
2019-04-07T08:07:18.196Z,94221
2019-04-07T08:08:27.609Z,94222
2019-04-07T08:09:37.029Z,94227
2019-04-07T08:10:46.267Z,94229
2019-04-07T08:11:56.442Z,94225
2019-04-07T08:13:07.828Z,94224
2019-04-07T08:14:18.199Z,94229
2019-04-07T08:15:29.784Z,94234
2019-04-07T08:16:37.266Z,94229
2019-04-07T08:17:46.328Z,94238
2019-04-07T08:18:58.414Z,94242
2019-04-07T08:20:05.632Z,94240
2019-04-07T08:21:17.586Z,94239
2019-04-07T08:22:29.196Z,94243
2019-04-07T08:23:36.186Z,94246
2019-04-07T08:24:49.522Z,94242
2019-04-07T08:25:56.279Z,94246
2019-04-07T08:27:05.161Z,94241
2019-04-07T08:28:14.684Z,94245
2019-04-07T08:29:24.846Z,94247
2019-04-07T08:30:34.348Z,94251
2019-04-07T08:31:44.941Z,94248
2019-04-07T08:32:58.547Z,94249
2019-04-07T08:34:06.011Z,94249
2019-04-07T08:35:15.464Z,94248
2019-04-07T08:36:24.927Z,94250
2019-04-07T08:37:35.170Z,94253
2019-04-07T08:38:43.972Z,94255
2019-04-07T08:39:56.931Z,94252
2019-04-07T08:41:08.092Z,94249
2019-04-07T08:42:18.485Z,94246
2019-04-07T08:43:24.947Z,94245
2019-04-07T08:44:34.515Z,94246
2019-04-07T08:45:43.967Z,94245
2019-04-07T08:46:54.073Z,94249
2019-04-07T08:48:03.007Z,94242
2019-04-07T08:49:12.757Z,94245
2019-04-07T08:50:24.603Z,94247
2019-04-07T08:51:33.558Z,94246
2019-04-07T08:52:43.672Z,94243
2019-04-07T08:53:52.426Z,94243
2019-04-07T08:55:01.844Z,94248
2019-04-07T08:56:10.927Z,94250
2019-04-07T08:57:20.327Z,94246
2019-04-07T08:58:36.037Z,94250
2019-04-07T08:59:42.923Z,94254
2019-04-07T09:00:51.935Z,94254
2019-04-07T09:02:00.409Z,94246
2019-04-07T09:03:13.132Z,94247
2019-04-07T09:04:20.721Z,94247
2019-04-07T09:05:31.178Z,94253
2019-04-07T09:06:39.662Z,94261
2019-04-07T09:07:49.073Z,94255
2019-04-07T09:08:58.572Z,94257
2019-04-07T09:10:09.061Z,94257
2019-04-07T09:11:21.581Z,94259
2019-04-07T09:12:31.078Z,94260
2019-04-07T09:13:38.595Z,94260
2019-04-07T09:14:48.099Z,94256
2019-04-07T09:15:57.627Z,94253
2019-04-07T09:17:07.158Z,94256
2019-04-07T09:18:17.349Z,94256
2019-04-07T09:19:26.427Z,94264
2019-04-07T09:20:40.215Z,94262
2019-04-07T09:21:50.220Z,94265
2019-04-07T09:22:58.219Z,94268
2019-04-07T09:24:08.284Z,94260
2019-04-07T09:25:18.226Z,94265
2019-04-07T09:26:27.197Z,94269
2019-04-07T09:27:37.403Z,94264
2019-04-07T09:28:46.163Z,94261
2019-04-07T09:29:58.130Z,94257
2019-04-07T09:31:07.407Z,94262
2019-04-07T09:32:16.651Z,94258
2019-04-07T09:33:26.185Z,94252
2019-04-07T09:34:36.673Z,94261
2019-04-07T09:35:46.179Z,94259
2019-04-07T09:36:56.691Z,94256
2019-04-07T09:38:07.951Z,94259
2019-04-07T09:39:16.406Z,94260
2019-04-07T09:40:25.302Z,94264
2019-04-07T09:41:35.248Z,94260
2019-04-07T09:42:45.943Z,94260
2019-04-07T09:43:55.183Z,94261
2019-04-07T09:45:07.317Z,94268
2019-04-07T09:46:15.686Z,94262
2019-04-07T09:47:25.900Z,94254
2019-04-07T09:48:35.404Z,94263
2019-04-07T09:49:48.106Z,94263
2019-04-07T09:50:56.250Z,94260
2019-04-07T09:52:05.671Z,94259
2019-04-07T09:53:16.982Z,94265
2019-04-07T09:54:25.181Z,94260
2019-04-07T09:55:34.603Z,94263
2019-04-07T09:56:44.115Z,94271
2019-04-07T09:57:53.853Z,94271
2019-04-07T09:59:03.567Z,94269
2019-04-07T10:00:12.738Z,94276
2019-04-07T10:01:25.282Z,94272
2019-04-07T10:02:35.313Z,94275
2019-04-07T10:03:42.115Z,94274
2019-04-07T10:04:51.621Z,94270
2019-04-07T10:06:01.131Z,94273
2019-04-07T10:07:12.200Z,94276
2019-04-07T10:08:21.108Z,94278
2019-04-07T10:09:30.615Z,94276
2019-04-07T10:10:40.116Z,94280
2019-04-07T10:11:49.641Z,94277
2019-04-07T10:12:59.722Z,94275
2019-04-07T10:14:08.633Z,94278
2019-04-07T10:15:18.783Z,94281
2019-04-07T10:16:28.251Z,94281
2019-04-07T10:17:38.409Z,94281
2019-04-07T10:18:47.656Z,94273
2019-04-07T10:19:58.792Z,94276
2019-04-07T10:21:07.653Z,94280
2019-04-07T10:22:17.543Z,94276
2019-04-07T10:23:26.684Z,94270
2019-04-07T10:24:37.034Z,94276
2019-04-07T10:25:46.571Z,94270
2019-04-07T10:26:55.304Z,94274
2019-04-07T10:28:07.174Z,94276
2019-04-07T10:29:15.436Z,94272
2019-04-07T10:30:24.705Z,94272
2019-04-07T10:31:34.934Z,94275
2019-04-07T10:32:44.098Z,94276
2019-04-07T10:33:53.854Z,94278
2019-04-07T10:35:02.775Z,94281
2019-04-07T10:36:12.275Z,94285
2019-04-07T10:37:21.959Z,94281
2019-04-07T10:38:31.698Z,94278
2019-04-07T10:39:41.436Z,94276
2019-04-07T10:40:51.120Z,94272
2019-04-07T10:42:00.220Z,94273
2019-04-07T10:43:09.590Z,94270
2019-04-07T10:44:19.420Z,94270
2019-04-07T10:45:28.496Z,94273
2019-04-07T10:46:37.940Z,94276
2019-04-07T10:47:47.453Z,94278
2019-04-07T10:48:56.972Z,94270
2019-04-07T10:50:08.777Z,94277
2019-04-07T10:51:17.392Z,94277
2019-04-07T10:52:28.194Z,94270
2019-04-07T10:53:37.070Z,94278
2019-04-07T10:54:47.093Z,94280
2019-04-07T10:55:56.390Z,94280
2019-04-07T10:57:05.501Z,94273
2019-04-07T10:58:15.227Z,94270
2019-04-07T10:59:24.516Z,94270
2019-04-07T11:00:34.023Z,94274
2019-04-07T11:01:44.495Z,94270
2019-04-07T11:02:56.624Z,94268
2019-04-07T11:04:03.889Z,94269
2019-04-07T11:05:13.107Z,94272
2019-04-07T11:06:22.774Z,94273
2019-04-07T11:07:32.577Z,94276
2019-04-07T11:08:42.219Z,94275
2019-04-07T11:09:53.246Z,94275
2019-04-07T11:11:03.374Z,94278
2019-04-07T11:12:12.121Z,94273
2019-04-07T11:13:22.044Z,94274
2019-04-07T11:14:31.165Z,94276
2019-04-07T11:15:40.677Z,94274
2019-04-07T11:16:50.188Z,94273
2019-04-07T11:18:00.357Z,94277
2019-04-07T11:19:09.782Z,94276
2019-04-07T11:20:19.363Z,94274
2019-04-07T11:21:28.266Z,94269
2019-04-07T11:22:37.743Z,94262
2019-04-07T11:23:47.267Z,94264
2019-04-07T11:24:57.457Z,94265
2019-04-07T11:26:06.916Z,94266
2019-04-07T11:27:16.556Z,94267
2019-04-07T11:28:27.673Z,94267
2019-04-07T11:29:37.535Z,94268
2019-04-07T11:30:45.153Z,94272
2019-04-07T11:31:54.766Z,94274
2019-04-07T11:33:03.812Z,94268
2019-04-07T11:34:14.020Z,94271
2019-04-07T11:35:23.310Z,94270
2019-04-07T11:36:34.165Z,94272
2019-04-07T11:37:42.968Z,94278
2019-04-07T11:38:52.574Z,94275
2019-04-07T11:40:02.251Z,94277
2019-04-07T11:41:12.345Z,94274
2019-04-07T11:42:22.945Z,94267
2019-04-07T11:43:31.701Z,94267
2019-04-07T11:44:41.258Z,94268
2019-04-07T11:45:56.741Z,94267
2019-04-07T11:47:02.062Z,94271
2019-04-07T11:48:10.893Z,94269
2019-04-07T11:49:20.362Z,94267
2019-04-07T11:50:29.986Z,94267
2019-04-07T11:51:40.608Z,94266
2019-04-07T11:52:49.422Z,94268
2019-04-07T11:53:58.827Z,94269
2019-04-07T11:55:08.538Z,94269
2019-04-07T11:56:17.514Z,94269
2019-04-07T11:57:27.157Z,94267
2019-04-07T11:58:36.665Z,94275
2019-04-07T11:59:46.190Z,94269
2019-04-07T12:00:55.721Z,94267
2019-04-07T12:02:07.449Z,94264
2019-04-07T12:03:14.958Z,94267
2019-04-07T12:04:25.264Z,94275
2019-04-07T12:05:34.791Z,94279
2019-04-07T12:06:48.031Z,94278
2019-04-07T12:07:57.113Z,94273
2019-04-07T12:09:04.955Z,94272
2019-04-07T12:10:14.231Z,94266
2019-04-07T12:11:24.490Z,94264
2019-04-07T12:12:33.054Z,94267
2019-04-07T12:13:44.580Z,94267
2019-04-07T12:14:53.449Z,94263
2019-04-07T12:16:02.097Z,94256
2019-04-07T12:17:12.508Z,94259
2019-04-07T12:18:21.438Z,94266
2019-04-07T12:19:30.663Z,94267
2019-04-07T12:20:39.765Z,94258
2019-04-07T12:21:49.352Z,94261
2019-04-07T12:22:59.297Z,94261
2019-04-07T12:24:09.714Z,94263
2019-04-07T12:25:17.783Z,94265
2019-04-07T12:26:27.383Z,94265
2019-04-07T12:27:37.983Z,94259
2019-04-07T12:28:50.209Z,94259
2019-04-07T12:29:58.134Z,94256
2019-04-07T12:31:07.578Z,94257
2019-04-07T12:32:17.047Z,94266
2019-04-07T12:33:26.569Z,94259
2019-04-07T12:34:35.834Z,94259
2019-04-07T12:35:50.262Z,94257
2019-04-07T12:36:57.830Z,94268
2019-04-07T12:38:09.940Z,94262
2019-04-07T12:39:18.799Z,94262
2019-04-07T12:40:27.949Z,94262
2019-04-07T12:41:36.884Z,94267
2019-04-07T12:42:47.080Z,94268
2019-04-07T12:43:56.188Z,94273
2019-04-07T12:45:05.407Z,94267
2019-04-07T12:46:15.537Z,94262
2019-04-07T12:47:24.441Z,94258
2019-04-07T12:48:34.836Z,94259
2019-04-07T12:49:44.832Z,94263
2019-04-07T12:50:52.966Z,94259
2019-04-07T12:52:02.486Z,94259
2019-04-07T12:53:13.496Z,94255
2019-04-07T12:54:23.378Z,94256
2019-04-07T12:55:32.617Z,94259
2019-04-07T12:56:42.278Z,94258
2019-04-07T12:57:51.022Z,94260
2019-04-07T12:59:01.401Z,94258
2019-04-07T13:00:10.272Z,94256
2019-04-07T13:01:19.986Z,94250
2019-04-07T13:02:29.074Z,94256
2019-04-07T13:03:39.121Z,94254
2019-04-07T13:04:48.203Z,94251
2019-04-07T13:05:59.060Z,94253
2019-04-07T13:07:08.927Z,94249
2019-04-07T13:08:22.400Z,94250
2019-04-07T13:09:32.284Z,94252
2019-04-07T13:10:39.431Z,94248
2019-04-07T13:11:50.276Z,94245
2019-04-07T13:12:59.365Z,94244
2019-04-07T13:14:09.721Z,94243
2019-04-07T13:15:17.332Z,94244
2019-04-07T13:16:27.801Z,94242
2019-04-07T13:17:37.631Z,94244
2019-04-07T13:18:46.433Z,94245
2019-04-07T13:19:58.192Z,94244
2019-04-07T13:21:05.430Z,94240
2019-04-07T13:22:15.097Z,94237
2019-04-07T13:23:23.880Z,94237
2019-04-07T13:24:37.576Z,94246
2019-04-07T13:25:45.334Z,94236
2019-04-07T13:26:56.191Z,94245
2019-04-07T13:28:06.455Z,94239
2019-04-07T13:29:16.032Z,94238
2019-04-07T13:30:24.881Z,94237
2019-04-07T13:31:34.375Z,94240
2019-04-07T13:32:47.120Z,94238
2019-04-07T13:33:54.395Z,94240
2019-04-07T13:35:04.857Z,94244
2019-04-07T13:36:14.927Z,94245
2019-04-07T13:37:23.936Z,94245
2019-04-07T13:38:33.905Z,94246
2019-04-07T13:39:45.154Z,94247
2019-04-07T13:40:53.081Z,94256
2019-04-07T13:42:02.179Z,94244
2019-04-07T13:43:12.215Z,94247
2019-04-07T13:44:21.742Z,94248
2019-04-07T13:45:31.207Z,94248
2019-04-07T13:46:40.089Z,94247
2019-04-07T13:47:49.522Z,94241
2019-04-07T13:49:00.485Z,94256
2019-04-07T13:50:08.655Z,94248
2019-04-07T13:51:18.270Z,94244
2019-04-07T13:52:27.876Z,94259
2019-04-07T13:53:37.820Z,94259
2019-04-07T13:54:47.129Z,94250
2019-04-07T13:55:56.195Z,94246
2019-04-07T13:57:06.554Z,94245
2019-04-07T13:58:16.046Z,94250
2019-04-07T13:59:24.781Z,94244
2019-04-07T14:00:34.977Z,94247
2019-04-07T14:01:43.973Z,94248
2019-04-07T14:02:55.002Z,94249
2019-04-07T14:04:03.807Z,94249
2019-04-07T14:05:13.308Z,94249
2019-04-07T14:06:23.641Z,94254
2019-04-07T14:07:34.390Z,94258
2019-04-07T14:08:42.500Z,94252
2019-04-07T14:09:51.788Z,94255
2019-04-07T14:11:01.481Z,94256
2019-04-07T14:12:12.798Z,94256
2019-04-07T14:13:22.126Z,94253
2019-04-07T14:14:31.472Z,94276
2019-04-07T14:15:40.942Z,94270
2019-04-07T14:16:50.787Z,94256
2019-04-07T14:18:00.090Z,94260
2019-04-07T14:19:09.399Z,94261
2019-04-07T14:20:19.328Z,94262
2019-04-07T14:21:28.454Z,94264
2019-04-07T14:22:37.968Z,94259
2019-04-07T14:23:47.676Z,94260
2019-04-07T14:24:58.830Z,94261
2019-04-07T14:26:07.851Z,94265
2019-04-07T14:27:17.254Z,94267
2019-04-07T14:28:27.740Z,94265
2019-04-07T14:29:36.997Z,94267
2019-04-07T14:30:46.126Z,94266
2019-04-07T14:31:56.640Z,94263
2019-04-07T14:33:06.554Z,94263
2019-04-07T14:34:15.789Z,94271
2019-04-07T14:35:26.923Z,94263
2019-04-07T14:36:36.148Z,94269
2019-04-07T14:37:46.157Z,94268
2019-04-07T14:38:55.880Z,94264
2019-04-07T14:40:05.362Z,94259
2019-04-07T14:41:14.864Z,94260
2019-04-07T14:42:25.252Z,94264
2019-04-07T14:43:34.424Z,94266
2019-04-07T14:44:43.492Z,94265
2019-04-07T14:45:53.027Z,94264
2019-04-07T14:47:03.241Z,94267
2019-04-07T14:48:12.913Z,94265
2019-04-07T14:49:21.582Z,94272
2019-04-07T14:50:31.065Z,94282
2019-04-07T14:51:42.635Z,94275
2019-04-07T14:52:50.074Z,94267
2019-04-07T14:53:59.951Z,94266
2019-04-07T14:55:09.187Z,94265
2019-04-07T14:56:18.940Z,94267
2019-04-07T14:57:28.748Z,94260